Time;durP1;ratioP1;P1;durP2;ratioP2;P2;SDS_P1;SDS_P2;PMS_P1;PMS_P2;Temp;Humidity;BMP_temperature;BMP_pressure;BME280_temperature;BME280_humidity;BME280_pressure;Samples;Min_cycle;Max_cycle;Signal;HPM_P1;HPM_P2
2023/05/22 00:02:18;;;;;;;11.87;10.90;;;;;;;14.27;100.00;96668.97;5032473;28;20337;-68
2023/05/22 00:04:46;;;;;;;12.57;11.57;;;;;;;14.23;100.00;96671.25;5021320;28;20680;-67
2023/05/22 00:07:13;;;;;;;12.23;11.03;;;;;;;14.14;100.00;96668.06;5041921;28;20204;-68
2023/05/22 00:09:41;;;;;;;12.43;11.47;;;;;;;14.13;100.00;96661.09;5041504;28;20216;-67
2023/05/22 00:12:09;;;;;;;12.57;11.67;;;;;;;14.07;100.00;96663.84;4995167;28;20490;-70
2023/05/22 00:14:38;;;;;;;11.97;11.07;;;;;;;14.01;100.00;96661.00;5025136;28;20283;-69
2023/05/22 00:17:05;;;;;;;13.27;12.17;;;;;;;14.03;100.00;96660.78;5026969;28;20214;-66
2023/05/22 00:19:33;;;;;;;12.00;11.00;;;;;;;13.99;100.00;96662.25;5026335;28;20214;-68
2023/05/22 00:22:01;;;;;;;12.00;10.90;;;;;;;13.98;100.00;96674.75;5044091;28;20637;-68
2023/05/22 00:24:29;;;;;;;12.03;10.83;;;;;;;13.98;100.00;96656.09;5042681;28;21109;-68
2023/05/22 00:26:56;;;;;;;12.77;11.57;;;;;;;13.99;100.00;96664.94;4993830;28;20345;-66
2023/05/22 00:29:24;;;;;;;12.20;11.10;;;;;;;13.93;100.00;96666.59;5043962;28;20321;-68
2023/05/22 00:31:53;;;;;;;13.67;12.30;;;;;;;13.91;100.00;96665.22;5044223;28;21126;-68
2023/05/22 00:34:21;;;;;;;12.87;11.87;;;;;;;13.85;100.00;96670.38;5013693;28;20610;-68
2023/05/22 00:36:48;;;;;;;13.13;12.13;;;;;;;13.88;100.00;96659.28;5043717;28;20800;-66
2023/05/22 00:39:16;;;;;;;12.67;11.57;;;;;;;13.81;100.00;96655.84;5045723;28;20581;-67
2023/05/22 00:41:43;;;;;;;12.43;11.33;;;;;;;13.74;100.00;96653.25;4989400;28;22028;-67
2023/05/22 00:44:11;;;;;;;12.07;11.00;;;;;;;13.69;100.00;96652.25;5051950;28;20787;-68
2023/05/22 00:46:39;;;;;;;13.47;12.47;;;;;;;13.59;100.00;96658.91;5048131;28;20578;-68
2023/05/22 00:49:08;;;;;;;12.07;11.07;;;;;;;13.52;100.00;96650.16;5028618;28;20206;-66
2023/05/22 00:51:36;;;;;;;12.57;11.47;;;;;;;13.48;100.00;96646.28;5030244;28;20285;-68
2023/05/22 00:54:05;;;;;;;12.27;11.17;;;;;;;13.46;100.00;96640.38;5049154;28;20195;-69
2023/05/22 00:56:32;;;;;;;11.87;10.93;;;;;;;13.42;100.00;96642.63;5045234;28;20203;-69
2023/05/22 00:59:00;;;;;;;11.67;10.87;;;;;;;13.41;100.00;96637.47;5001732;28;20295;-69
2023/05/22 01:01:32;;;;;;;11.57;10.67;;;;;;;13.34;100.00;96642.88;5042150;28;20337;-69
2023/05/22 01:04:00;;;;;;;12.47;11.37;;;;;;;13.34;100.00;96640.22;5011576;28;20631;-68
2023/05/22 01:06:30;;;;;;;11.93;11.13;;;;;;;13.20;100.00;96617.38;5036600;28;20428;-68
2023/05/22 01:08:58;;;;;;;12.27;11.27;;;;;;;13.35;100.00;96649.81;5052314;28;20412;-68
2023/05/22 01:11:32;;;;;;;12.10;11.10;;;;;;;13.45;100.00;96652.84;5051323;28;20234;-69
2023/05/22 01:14:02;;;;;;;12.53;11.50;;;;;;;13.49;100.00;96647.91;5003195;28;20950;-67
2023/05/22 01:16:34;;;;;;;12.23;11.13;;;;;;;13.48;100.00;96653.44;5052957;28;20663;-68
2023/05/22 01:19:16;;;;;;;11.73;10.83;;;;;;;13.46;100.00;96654.47;5037413;28;20214;-71
2023/05/22 01:21:49;;;;;;;11.53;10.63;;;;;;;13.34;100.00;96648.19;5036116;28;20225;-71
2023/05/22 01:24:45;;;;;;;12.47;11.27;;;;;;;13.13;100.00;96631.53;5052678;28;20515;-69
2023/05/22 01:27:34;;;;;;;12.87;11.80;;;;;;;13.21;100.00;96658.91;5053348;28;20309;-68
2023/05/22 01:30:19;;;;;;;11.50;10.60;;;;;;;13.11;100.00;96657.53;5007851;28;20885;-68
2023/05/22 01:32:49;;;;;;;12.83;11.83;;;;;;;13.10;100.00;96663.88;5053380;28;20295;-69
2023/05/22 01:35:18;;;;;;;12.40;11.47;;;;;;;13.05;100.00;96663.69;5040152;28;20252;-68
2023/05/22 01:37:46;;;;;;;12.67;11.57;;;;;;;13.01;100.00;96668.63;5030520;28;20606;-66
2023/05/22 01:40:14;;;;;;;12.27;11.37;;;;;;;12.96;100.00;96667.63;5053386;28;20419;-69
2023/05/22 01:42:42;;;;;;;11.80;10.70;;;;;;;12.86;100.00;96665.44;5050812;28;20618;-68
2023/05/22 01:45:11;;;;;;;12.30;11.20;;;;;;;12.92;100.00;96666.44;5059354;28;20609;-68
2023/05/22 01:47:38;;;;;;;12.87;11.80;;;;;;;12.88;100.00;96669.53;5003687;28;20210;-69
2023/05/22 01:50:08;;;;;;;11.53;10.73;;;;;;;12.81;100.00;96671.34;5052637;28;20382;-71
2023/05/22 01:52:43;;;;;;;12.60;11.50;;;;;;;12.82;100.00;96666.88;5019776;28;20317;-69
2023/05/22 01:55:13;;;;;;;13.17;11.97;;;;;;;12.78;100.00;96668.31;5053417;28;20605;-66
2023/05/22 01:57:46;;;;;;;12.73;11.63;;;;;;;12.72;100.00;96665.50;5054641;28;20275;-69
2023/05/22 02:00:15;;;;;;;12.07;11.07;;;;;;;12.73;100.00;96664.47;5048066;28;20202;-68
2023/05/22 02:02:47;;;;;;;12.60;11.60;;;;;;;12.68;100.00;96666.09;4996039;28;20222;-68
2023/05/22 02:05:18;;;;;;;12.80;11.80;;;;;;;12.68;100.00;96661.59;5054313;28;20759;-68
2023/05/22 02:07:46;;;;;;;12.50;11.50;;;;;;;12.71;100.00;96658.53;5031192;28;20210;-67
2023/05/22 02:10:14;;;;;;;12.47;11.43;;;;;;;12.68;100.00;96666.09;5034339;28;20292;-67
2023/05/22 02:12:42;;;;;;;12.17;11.27;;;;;;;12.63;100.00;96661.41;5051463;28;20218;-68
2023/05/22 02:15:10;;;;;;;11.87;10.97;;;;;;;12.60;100.00;96661.84;5054044;28;20944;-68
2023/05/22 02:17:40;;;;;;;13.47;12.13;;;;;;;12.41;100.00;96640.44;5000445;28;20577;-68
2023/05/22 02:20:13;;;;;;;12.57;11.57;;;;;;;12.52;100.00;96656.75;5057077;28;20296;-68
2023/05/22 02:22:43;;;;;;;12.37;11.33;;;;;;;12.54;100.00;96652.03;5033762;28;20226;-69
2023/05/22 02:25:13;;;;;;;12.77;11.73;;;;;;;12.46;100.00;96663.72;5037976;28;20354;-66
2023/05/22 02:27:41;;;;;;;12.83;11.80;;;;;;;12.43;100.00;96659.66;5051477;28;20924;-68
2023/05/22 02:30:10;;;;;;;12.77;11.67;;;;;;;12.51;100.00;96644.50;5056562;28;20277;-69
2023/05/22 02:32:38;;;;;;;12.50;11.47;;;;;;;12.40;100.00;96636.16;4992528;28;20253;-66
2023/05/22 02:35:06;;;;;;;12.03;11.03;;;;;;;12.49;100.00;96649.19;5053625;28;20225;-68
2023/05/22 02:37:35;;;;;;;12.50;11.43;;;;;;;12.43;100.00;96641.06;5049001;28;20326;-67
2023/05/22 02:40:05;;;;;;;13.50;12.30;;;;;;;12.44;100.00;96640.03;5053313;28;20206;-69
2023/05/22 02:42:33;;;;;;;12.33;11.40;;;;;;;12.47;100.00;96638.78;5032901;28;20222;-68
2023/05/22 02:45:00;;;;;;;12.43;11.30;;;;;;;12.44;100.00;96634.72;5055434;28;20256;-67
2023/05/22 02:47:29;;;;;;;11.93;11.03;;;;;;;12.24;100.00;96624.13;5030886;28;20314;-69
2023/05/22 02:49:58;;;;;;;12.03;11.13;;;;;;;12.39;100.00;96639.84;5030682;28;20549;-67
2023/05/22 02:52:27;;;;;;;11.83;10.83;;;;;;;12.33;100.00;96640.69;5050011;28;21239;-68
2023/05/22 02:54:54;;;;;;;12.23;11.33;;;;;;;12.33;100.00;96642.50;5035275;28;20237;-68
2023/05/22 02:57:23;;;;;;;12.83;11.70;;;;;;;12.26;100.00;96648.66;5036508;28;20209;-69
2023/05/22 02:59:51;;;;;;;12.70;11.60;;;;;;;12.32;100.00;96648.84;5052706;28;20600;-67
2023/05/22 03:02:19;;;;;;;11.43;10.53;;;;;;;12.24;100.00;96645.38;5047745;28;20234;-69
2023/05/22 03:04:46;;;;;;;12.13;11.17;;;;;;;12.21;100.00;96645.81;5007955;28;20793;-68
2023/05/22 03:07:14;;;;;;;12.60;11.50;;;;;;;12.17;100.00;96652.56;5051580;28;20222;-70
2023/05/22 03:09:42;;;;;;;12.67;11.60;;;;;;;12.12;100.00;96652.34;5039568;28;20640;-68
2023/05/22 03:12:10;;;;;;;12.37;11.37;;;;;;;12.04;100.00;96652.56;5032304;28;20287;-68
2023/05/22 03:14:39;;;;;;;13.50;12.00;;;;;;;12.10;100.00;96654.38;5038539;28;20442;-68
2023/05/22 03:17:06;;;;;;;12.50;11.30;;;;;;;12.13;100.00;96654.00;5053596;28;20329;-68
2023/05/22 03:19:34;;;;;;;13.33;12.33;;;;;;;12.15;100.00;96649.28;5001848;28;20897;-68
2023/05/22 03:22:02;;;;;;;12.50;11.50;;;;;;;12.14;100.00;96650.31;5052180;28;20870;-68
2023/05/22 03:24:30;;;;;;;12.40;11.37;;;;;;;12.13;100.00;96652.16;5046064;28;20714;-67
2023/05/22 03:26:59;;;;;;;13.43;12.27;;;;;;;12.19;100.00;96660.31;5042746;28;20635;-70
2023/05/22 03:29:26;;;;;;;12.03;11.03;;;;;;;12.19;100.00;96653.16;5023695;28;20627;-69
2023/05/22 03:31:56;;;;;;;11.87;11.03;;;;;;;12.18;100.00;96662.16;5034657;28;20222;-70
2023/05/22 03:34:26;;;;;;;13.90;12.70;;;;;;;12.23;100.00;96662.34;5004346;28;20202;-68
2023/05/22 03:36:53;;;;;;;12.67;11.47;;;;;;;12.22;100.00;96659.88;5054293;28;21003;-68
2023/05/22 03:39:21;;;;;;;12.97;11.97;;;;;;;12.26;100.00;96663.75;5049293;28;20347;-68
2023/05/22 03:41:49;;;;;;;11.77;10.87;;;;;;;12.24;100.00;96665.81;5022030;28;20696;-69
2023/05/22 03:44:16;;;;;;;11.77;10.77;;;;;;;12.20;100.00;96659.28;5033164;28;20853;-68
2023/05/22 03:46:44;;;;;;;12.20;11.10;;;;;;;12.23;100.00;96657.03;5052185;28;20301;-69
2023/05/22 03:49:13;;;;;;;12.23;11.33;;;;;;;12.19;100.00;96652.34;5036562;28;20207;-69
2023/05/22 03:51:41;;;;;;;12.57;11.40;;;;;;;12.15;100.00;96636.81;5025716;28;20348;-67
2023/05/22 03:54:09;;;;;;;13.00;11.90;;;;;;;12.32;100.00;96664.78;5027502;28;20988;-70
2023/05/22 03:56:37;;;;;;;12.63;11.63;;;;;;;12.30;100.00;96659.66;5037552;28;20318;-67
2023/05/22 03:59:05;;;;;;;12.63;11.40;;;;;;;12.38;100.00;96658.63;5030332;28;20534;-68
2023/05/22 04:01:33;;;;;;;13.23;11.87;;;;;;;12.38;100.00;96654.16;5052451;28;20668;-71
2023/05/22 04:04:01;;;;;;;12.23;11.33;;;;;;;12.31;100.00;96637.38;5048212;28;20729;-69
2023/05/22 04:06:31;;;;;;;11.97;11.03;;;;;;;12.32;100.00;96636.38;5006498;28;20579;-68
2023/05/22 04:09:00;;;;;;;13.27;12.13;;;;;;;12.42;100.00;96651.88;5046628;28;20240;-69
2023/05/22 04:11:29;;;;;;;12.23;11.33;;;;;;;12.50;100.00;96651.66;5031341;28;20739;-69
2023/05/22 04:13:57;;;;;;;13.13;12.03;;;;;;;12.63;100.00;96652.63;5033111;28;20205;-70
2023/05/22 04:16:24;;;;;;;12.90;11.70;;;;;;;12.59;100.00;96653.06;5052398;28;21102;-69
2023/05/22 04:18:52;;;;;;;12.87;11.87;;;;;;;12.61;100.00;96652.03;5053574;28;20994;-66
2023/05/22 04:21:19;;;;;;;11.53;10.63;;;;;;;12.63;100.00;96648.13;5000361;28;21575;-67
2023/05/22 04:23:48;;;;;;;12.90;11.80;;;;;;;12.84;100.00;96649.66;5052534;28;20208;-67
2023/05/22 04:26:16;;;;;;;12.03;11.13;;;;;;;12.87;100.00;96645.78;5050456;28;20559;-71
2023/05/22 04:28:45;;;;;;;11.93;10.83;;;;;;;12.82;100.00;96640.28;5034449;28;21145;-69
2023/05/22 04:31:12;;;;;;;12.70;11.57;;;;;;;12.88;100.00;96655.38;5030005;28;20370;-71
2023/05/22 04:33:40;;;;;;;12.70;11.70;;;;;;;12.83;100.00;96631.28;5053424;28;20269;-66
2023/05/22 04:36:08;;;;;;;11.70;10.77;;;;;;;13.00;100.00;96655.53;5047757;28;20863;-68
2023/05/22 04:38:40;;;;;;;12.50;11.40;;;;;;;13.09;100.00;96659.59;4998079;28;20213;-69
2023/05/22 04:41:09;;;;;;;12.40;11.40;;;;;;;13.21;100.00;96661.56;5050488;28;20374;-69
2023/05/22 04:43:37;;;;;;;12.43;11.43;;;;;;;13.37;100.00;96660.22;5032259;28;22497;-67
2023/05/22 04:46:05;;;;;;;12.17;11.23;;;;;;;13.42;100.00;96658.59;5029871;28;20442;-70
2023/05/22 04:48:32;;;;;;;11.60;10.70;;;;;;;13.42;100.00;96639.13;5048960;28;20690;-70
2023/05/22 04:51:01;;;;;;;12.37;11.47;;;;;;;13.72;100.00;96665.13;5047390;28;20836;-69
2023/05/22 04:53:29;;;;;;;12.40;11.30;;;;;;;13.89;100.00;96657.44;5009418;28;20254;-69
2023/05/22 04:55:56;;;;;;;12.67;11.67;;;;;;;14.01;100.00;96649.53;5050758;28;20684;-69
2023/05/22 04:58:26;;;;;;;12.27;11.20;;;;;;;14.10;100.00;96650.88;5033563;28;20290;-68
2023/05/22 05:00:56;;;;;;;12.03;11.07;;;;;;;14.25;100.00;96655.06;5037427;28;20202;-69
2023/05/22 05:03:25;;;;;;;11.37;10.47;;;;;;;14.44;100.00;96658.56;5049422;28;20213;-69
2023/05/22 05:05:52;;;;;;;12.03;10.90;;;;;;;14.68;100.00;96654.19;5053439;28;20202;-69
2023/05/22 05:08:20;;;;;;;11.43;10.53;;;;;;;14.81;100.00;96645.25;4999067;28;20217;-67
2023/05/22 05:10:47;;;;;;;11.00;9.90;;;;;;;15.03;100.00;96664.25;5039330;28;20211;-70
2023/05/22 05:13:15;;;;;;;10.90;9.90;;;;;;;15.18;100.00;96660.34;5030884;28;20918;-67
2023/05/22 05:15:44;;;;;;;11.20;10.10;;;;;;;15.41;100.00;96648.13;5030512;28;20341;-68
2023/05/22 05:18:12;;;;;;;10.57;9.60;;;;;;;15.39;100.00;96655.56;5031743;28;20317;-68
2023/05/22 05:20:39;;;;;;;10.10;9.30;;;;;;;15.42;100.00;96644.44;5049559;28;20414;-69
2023/05/22 05:23:09;;;;;;;10.57;9.67;;;;;;;15.45;100.00;96630.63;4976864;28;20614;-71
2023/05/22 05:25:37;;;;;;;10.90;10.13;;;;;;;15.63;100.00;96641.22;5048151;28;20222;-69
2023/05/22 05:28:09;;;;;;;10.90;9.77;;;;;;;15.69;100.00;96650.16;5036677;28;20239;-69
2023/05/22 05:30:37;;;;;;;10.43;9.67;;;;;;;15.93;100.00;96644.06;5052146;28;20211;-68
2023/05/22 05:33:07;;;;;;;11.57;10.77;;;;;;;16.03;100.00;96660.31;5009431;28;20714;-67
2023/05/22 05:35:35;;;;;;;10.13;9.33;;;;;;;16.30;100.00;96650.00;5049448;28;20233;-69
2023/05/22 05:38:02;;;;;;;10.77;9.87;;;;;;;16.38;100.00;96656.84;5050860;28;20198;-67
2023/05/22 05:40:30;;;;;;;10.47;9.60;;;;;;;16.53;100.00;96647.53;5002304;28;20215;-69
2023/05/22 05:42:57;;;;;;;10.20;9.50;;;;;;;16.50;100.00;96656.81;5053275;28;20215;-68
2023/05/22 05:45:25;;;;;;;10.60;9.80;;;;;;;16.64;100.00;96650.16;5034041;28;20619;-68
2023/05/22 05:47:53;;;;;;;10.30;9.60;;;;;;;16.75;100.00;96653.84;5015048;28;20214;-67
2023/05/22 05:50:22;;;;;;;10.73;10.03;;;;;;;16.78;100.00;96657.94;5049205;28;20685;-70
2023/05/22 05:52:50;;;;;;;10.10;9.33;;;;;;;16.90;100.00;96653.34;5050563;28;20787;-69
2023/05/22 05:55:18;;;;;;;10.53;9.73;;;;;;;16.88;100.00;96649.31;5000057;28;20225;-68
2023/05/22 05:57:46;;;;;;;9.77;9.00;;;;;;;17.05;100.00;96652.88;5054822;28;20631;-69
2023/05/22 06:00:14;;;;;;;10.87;9.97;;;;;;;17.21;100.00;96653.16;5033571;28;20809;-70
2023/05/22 06:02:42;;;;;;;12.67;10.83;;;;;;;17.18;100.00;96654.47;5031532;28;20262;-70
2023/05/22 06:05:10;;;;;;;10.17;9.17;;;;;;;17.25;100.00;96632.91;5053378;28;20533;-70
2023/05/22 06:07:39;;;;;;;10.80;9.90;;;;;;;17.44;100.00;96654.09;5045629;28;20372;-69
2023/05/22 06:10:09;;;;;;;9.63;8.83;;;;;;;17.60;100.00;96649.81;5004334;28;20309;-67
2023/05/22 06:12:37;;;;;;;10.43;9.40;;;;;;;17.53;100.00;96652.63;5048506;28;20966;-66
2023/05/22 06:15:07;;;;;;;9.80;9.10;;;;;;;17.65;100.00;96650.72;5034130;28;20454;-68
2023/05/22 06:17:35;;;;;;;9.70;9.00;;;;;;;17.83;100.00;96651.53;5051230;28;20579;-71
2023/05/22 06:20:04;;;;;;;10.07;9.17;;;;;;;17.84;100.00;96644.31;5031556;28;20210;-70
2023/05/22 06:22:31;;;;;;;9.30;8.60;;;;;;;17.96;100.00;96654.94;5045128;28;20219;-71
2023/05/22 06:25:00;;;;;;;10.00;9.30;;;;;;;18.09;100.00;96657.31;5004448;28;20423;-69
2023/05/22 06:27:28;;;;;;;9.30;8.60;;;;;;;18.26;100.00;96651.13;5053535;28;20198;-68
2023/05/22 06:29:55;;;;;;;9.87;8.93;;;;;;;18.27;100.00;96652.75;5054485;28;20202;-67
2023/05/22 06:32:23;;;;;;;9.37;8.67;;;;;;;18.60;100.00;96651.88;5032565;28;20510;-69
2023/05/22 06:34:51;;;;;;;9.67;8.80;;;;;;;18.77;100.00;96657.19;5030569;28;20524;-68
2023/05/22 06:37:18;;;;;;;8.87;8.17;;;;;;;18.75;100.00;96656.63;5050341;28;20213;-69
2023/05/22 06:39:46;;;;;;;9.53;8.73;;;;;;;18.90;100.00;96655.16;5046058;28;20544;-68
2023/05/22 06:42:15;;;;;;;10.47;9.67;;;;;;;18.97;100.00;96655.78;4999742;28;20341;-69
2023/05/22 06:44:43;;;;;;;9.80;9.07;;;;;;;19.03;100.00;96645.94;5050909;28;20814;-68
2023/05/22 06:47:10;;;;;;;9.37;8.77;;;;;;;19.17;100.00;96657.13;5038128;28;20206;-69
2023/05/22 06:49:38;;;;;;;8.93;8.23;;;;;;;19.34;100.00;96652.44;5027881;28;20711;-69
2023/05/22 06:52:06;;;;;;;9.93;9.23;;;;;;;19.45;100.00;96653.34;5050282;28;20317;-69
2023/05/22 06:54:33;;;;;;;9.73;8.97;;;;;;;19.63;100.00;96656.72;5048632;28;20574;-68
2023/05/22 06:57:03;;;;;;;10.10;9.10;;;;;;;19.72;100.00;96646.34;5006931;28;20210;-68
2023/05/22 06:59:32;;;;;;;9.67;8.97;;;;;;;19.71;100.00;96658.16;5051447;28;20198;-68
2023/05/22 07:01:59;;;;;;;8.93;8.33;;;;;;;19.70;100.00;96659.22;5028597;28;21044;-71
2023/05/22 07:04:27;;;;;;;10.07;9.27;;;;;;;19.66;100.00;96665.09;5039836;28;20301;-70
2023/05/22 07:06:55;;;;;;;9.30;8.60;;;;;;;19.70;100.00;96653.84;5047852;28;20207;-71
2023/05/22 07:09:22;;;;;;;9.20;8.27;;;;;;;19.69;100.00;96655.69;5051299;28;20211;-70
2023/05/22 07:11:50;;;;;;;9.17;8.47;;;;;;;19.92;100.00;96653.78;5000892;28;21408;-68
2023/05/22 07:14:17;;;;;;;9.30;8.53;;;;;;;20.07;100.00;96659.25;5054491;28;20310;-68
2023/05/22 07:16:46;;;;;;;9.27;8.60;;;;;;;20.05;100.00;96660.59;5029102;28;20420;-69
2023/05/22 07:19:14;;;;;;;9.27;8.57;;;;;;;19.95;100.00;96656.78;5052491;28;20240;-68
2023/05/22 07:21:42;;;;;;;9.27;8.57;;;;;;;20.12;100.00;96661.19;5029547;28;20223;-68
2023/05/22 07:24:09;;;;;;;9.00;8.40;;;;;;;20.26;100.00;96666.91;5048050;28;20793;-69
2023/05/22 07:26:38;;;;;;;9.47;8.87;;;;;;;20.36;100.00;96664.28;5047501;28;20680;-68
2023/05/22 07:29:05;;;;;;;9.93;9.03;;;;;;;20.46;100.00;96655.47;5010403;28;20846;-70
2023/05/22 07:31:33;;;;;;;9.87;9.10;;;;;;;20.41;100.00;96655.44;5050295;28;20692;-70
2023/05/22 07:34:02;;;;;;;9.30;8.70;;;;;;;20.48;100.00;96664.09;5034211;28;20223;-69
2023/05/22 07:36:30;;;;;;;9.73;8.90;;;;;;;20.54;100.00;96641.53;5035019;28;20688;-69
2023/05/22 07:38:58;;;;;;;10.33;9.13;;;;;;;20.60;100.00;96646.91;5053447;28;20206;-67
2023/05/22 07:41:26;;;;;;;9.53;8.73;;;;;;;20.65;100.00;96655.84;5051461;28;20480;-69
2023/05/22 07:43:54;;;;;;;10.13;9.43;;;;;;;20.68;100.00;96652.63;5002600;28;20735;-69
2023/05/22 07:46:22;;;;;;;10.00;9.20;;;;;;;20.74;100.00;96649.94;5054436;28;20320;-69
2023/05/22 07:48:49;;;;;;;9.63;8.83;;;;;;;20.81;100.00;96648.66;5032578;28;21535;-70
2023/05/22 07:51:18;;;;;;;9.90;9.10;;;;;;;20.81;100.00;96650.53;5053522;28;20699;-70
2023/05/22 07:53:46;;;;;;;9.17;8.47;;;;;;;20.96;100.00;96642.53;5028735;28;20497;-68
2023/05/22 07:56:14;;;;;;;9.80;9.10;;;;;;;21.05;100.00;96648.22;5055035;28;20278;-70
2023/05/22 07:58:42;;;;;;;10.30;9.37;;;;;;;21.15;100.00;96646.63;4996398;28;20928;-69
2023/05/22 08:01:10;;;;;;;9.33;8.67;;;;;;;21.15;100.00;96641.25;5056784;28;20222;-69
2023/05/22 08:03:38;;;;;;;10.03;9.03;;;;;;;21.21;100.00;96642.88;5028478;28;20869;-70
2023/05/22 08:06:06;;;;;;;9.40;8.60;;;;;;;21.30;100.00;96643.97;5056747;28;20203;-69
2023/05/22 08:08:35;;;;;;;9.40;8.50;;;;;;;21.43;100.00;96639.94;5026296;28;20435;-71
2023/05/22 08:11:03;;;;;;;9.07;8.27;;;;;;;21.35;100.00;96633.19;5055277;28;20233;-71
2023/05/22 08:13:32;;;;;;;8.90;8.20;;;;;;;21.58;100.00;96644.53;5002209;28;20210;-69
2023/05/22 08:15:59;;;;;;;9.30;8.50;;;;;;;21.37;97.52;96636.41;5058040;28;20200;-68
2023/05/22 08:18:28;;;;;;;9.17;8.53;;;;;;;21.72;100.00;96639.47;5043019;28;20203;-69
2023/05/22 08:20:56;;;;;;;9.13;8.43;;;;;;;21.90;95.47;96642.69;5033923;28;20202;-69
2023/05/22 08:23:24;;;;;;;10.63;9.70;;;;;;;22.00;96.37;96636.47;5038960;28;20419;-69
2023/05/22 08:25:53;;;;;;;9.00;8.40;;;;;;;22.09;97.87;96641.06;5046479;28;20403;-68
2023/05/22 08:28:21;;;;;;;8.70;8.10;;;;;;;22.10;91.86;96631.06;5028402;28;20285;-68
2023/05/22 08:30:49;;;;;;;8.97;8.27;;;;;;;22.33;92.28;96645.06;5022798;28;20217;-68
2023/05/22 08:33:18;;;;;;;8.57;8.03;;;;;;;22.42;86.35;96638.00;5042092;28;20199;-70
2023/05/22 08:35:46;;;;;;;8.43;7.83;;;;;;;22.45;90.20;96633.97;5018502;28;20568;-69
2023/05/22 08:38:15;;;;;;;9.40;8.63;;;;;;;22.43;88.91;96626.13;5046375;28;20294;-68
2023/05/22 08:40:47;;;;;;;8.57;8.07;;;;;;;22.60;89.13;96628.53;5024698;28;20293;-69
2023/05/22 08:43:16;;;;;;;8.93;8.17;;;;;;;22.59;84.92;96639.63;5022757;28;20207;-69
2023/05/22 08:45:44;;;;;;;8.73;7.93;;;;;;;22.52;83.85;96632.59;5003126;28;20598;-68
2023/05/22 08:48:13;;;;;;;7.93;7.43;;;;;;;22.62;83.57;96620.19;5051601;28;20217;-68
2023/05/22 08:50:41;;;;;;;9.07;8.17;;;;;;;22.74;81.92;96630.66;5032657;28;20297;-68
2023/05/22 08:53:12;;;;;;;8.90;8.30;;;;;;;22.82;83.08;96633.59;5046821;28;20251;-70
2023/05/22 08:55:40;;;;;;;8.50;8.00;;;;;;;22.90;83.27;96631.38;5031626;28;20229;-67
2023/05/22 08:58:08;;;;;;;8.53;7.77;;;;;;;22.96;82.32;96627.59;5046339;28;20787;-69
2023/05/22 09:00:37;;;;;;;10.13;8.00;;;;;;;22.96;79.01;96623.00;4999942;28;20237;-68
2023/05/22 09:03:12;;;;;;;8.13;7.53;;;;;;;23.17;77.17;96624.78;5051946;28;20325;-70
2023/05/22 09:05:40;;;;;;;8.80;8.10;;;;;;;23.30;79.64;96621.50;5046950;28;20201;-69
2023/05/22 09:08:08;;;;;;;8.13;7.63;;;;;;;23.22;70.08;96627.44;5031748;28;20770;-69
2023/05/22 09:10:47;;;;;;;7.70;6.97;;;;;;;23.06;71.56;96621.31;5052462;28;20209;-68
2023/05/22 09:13:24;;;;;;;8.00;7.20;;;;;;;23.39;70.38;96627.91;5033271;28;20288;-68
2023/05/22 09:15:54;;;;;;;7.60;7.10;;;;;;;23.42;62.13;96623.81;5002198;28;20631;-70
2023/05/22 09:18:25;;;;;;;7.40;6.90;;;;;;;23.65;60.63;96622.31;5052946;28;20203;-69
2023/05/22 09:20:53;;;;;;;7.60;7.10;;;;;;;23.60;61.90;96625.03;5054494;28;20787;-69
2023/05/22 09:23:21;;;;;;;7.03;6.63;;;;;;;23.67;60.35;96624.72;5033316;28;20215;-68
2023/05/22 09:25:48;;;;;;;8.63;7.83;;;;;;;23.87;67.42;96628.38;5053112;28;20599;-68
2023/05/22 09:28:16;;;;;;;7.90;7.33;;;;;;;24.02;66.55;96616.59;5010405;28;20858;-69
2023/05/22 09:30:48;;;;;;;8.03;7.17;;;;;;;23.90;63.39;96611.56;5047979;28;20211;-68
2023/05/22 09:33:17;;;;;;;7.20;6.60;;;;;;;23.70;57.97;96629.56;5000337;28;20748;-68
2023/05/22 09:35:46;;;;;;;7.30;6.80;;;;;;;23.33;58.09;96625.50;5049287;28;20643;-68
2023/05/22 09:38:13;;;;;;;8.40;7.60;;;;;;;23.68;67.60;96629.06;5028051;28;20652;-70
2023/05/22 09:40:41;;;;;;;9.37;8.63;;;;;;;23.99;63.64;96629.59;5050095;28;20199;-69
2023/05/22 09:43:09;;;;;;;11.00;8.67;;;;;;;24.10;62.29;96616.00;5027927;28;20602;-69
2023/05/22 09:45:38;;;;;;;7.90;7.30;;;;;;;24.11;66.36;96610.31;5051444;28;20215;-68
2023/05/22 09:48:08;;;;;;;8.10;7.50;;;;;;;24.17;62.17;96613.78;4990495;28;20211;-70
2023/05/22 09:50:38;;;;;;;7.80;7.30;;;;;;;24.24;71.56;96622.34;5050798;28;20195;-69
2023/05/22 09:53:07;;;;;;;7.90;7.40;;;;;;;24.19;61.37;96622.41;5046228;28;20327;-70
2023/05/22 09:55:36;;;;;;;8.30;7.60;;;;;;;24.04;61.93;96627.94;5033323;28;20464;-70
2023/05/22 09:58:05;;;;;;;8.47;7.87;;;;;;;23.62;60.57;96603.16;5028185;28;20216;-71
2023/05/22 10:00:33;;;;;;;8.63;7.80;;;;;;;23.42;59.00;96618.41;5052040;28;20318;-73
2023/05/22 10:03:03;;;;;;;7.23;6.70;;;;;;;23.83;64.86;96591.03;5005872;28;20228;-68
2023/05/22 10:05:32;;;;;;;8.10;7.50;;;;;;;24.28;62.35;96611.78;5038711;28;20392;-68
2023/05/22 10:08:10;;;;;;;8.30;7.70;;;;;;;24.06;63.15;96614.97;5051102;28;20202;-68
2023/05/22 10:10:38;;;;;;;8.53;7.77;;;;;;;24.04;60.60;96615.25;5032290;28;20217;-68
2023/05/22 10:13:07;;;;;;;8.33;7.73;;;;;;;23.59;64.23;96593.69;5029865;28;20234;-69
2023/05/22 10:15:35;;;;;;;9.23;7.90;;;;;;;23.53;62.47;96609.16;5052487;28;20253;-67
2023/05/22 10:18:03;;;;;;;9.23;8.53;;;;;;;23.31;64.60;96609.59;5017495;28;20305;-68
2023/05/22 10:20:31;;;;;;;8.70;7.90;;;;;;;23.30;62.57;96604.47;5037196;28;20625;-68
2023/05/22 10:22:59;;;;;;;8.07;7.50;;;;;;;23.50;65.40;96598.91;5054080;28;20223;-69
2023/05/22 10:25:29;;;;;;;8.77;8.07;;;;;;;23.82;62.79;96602.97;5030504;28;20346;-67
2023/05/22 10:27:57;;;;;;;7.40;6.90;;;;;;;23.75;60.89;96570.03;5040575;28;20269;-69
2023/05/22 10:30:29;;;;;;;7.67;7.07;;;;;;;23.77;60.39;96592.19;5048155;28;20289;-69
2023/05/22 10:33:00;;;;;;;8.40;7.70;;;;;;;23.62;66.25;96593.13;4975227;28;21017;-71
2023/05/22 10:35:33;;;;;;;8.17;7.43;;;;;;;23.64;60.52;96582.81;5039096;28;20294;-69
2023/05/22 10:38:12;;;;;;;7.73;7.13;;;;;;;23.59;64.26;96582.88;5051432;28;20493;-69
2023/05/22 10:40:42;;;;;;;7.33;6.93;;;;;;;23.48;59.41;96584.06;5048954;28;20317;-69
2023/05/22 10:43:09;;;;;;;7.50;7.00;;;;;;;23.66;59.89;96583.34;5054632;28;20770;-70
2023/05/22 10:45:37;;;;;;;7.93;7.43;;;;;;;23.45;58.77;96558.38;5019171;28;20306;-69
2023/05/22 10:48:05;;;;;;;8.77;8.00;;;;;;;23.54;59.44;96580.22;5045325;28;20521;-69
2023/05/22 10:50:34;;;;;;;9.07;8.47;;;;;;;23.86;59.88;96554.53;4985698;28;20814;-68
2023/05/22 10:53:22;;;;;;;9.40;8.13;;;;;;;24.61;57.17;96567.81;5047796;28;20229;-68
2023/05/22 10:55:53;;;;;;;7.53;6.90;;;;;;;24.70;58.83;96553.31;5042256;28;21035;-66
2023/05/22 10:58:26;;;;;;;7.27;6.73;;;;;;;24.79;53.72;96577.88;5030983;28;20395;-69
2023/05/22 11:01:14;;;;;;;7.17;6.47;;;;;;;24.83;49.92;96573.50;5033104;28;20206;-71
2023/05/22 11:03:56;;;;;;;7.53;6.77;;;;;;;24.99;50.08;96568.66;5052823;28;20230;-69
2023/05/22 11:06:36;;;;;;;7.10;6.70;;;;;;;25.13;52.05;96551.69;4990192;28;20245;-70
2023/05/22 11:09:18;;;;;;;8.03;7.33;;;;;;;24.94;50.07;96568.72;5043392;28;20402;-69
2023/05/22 11:11:48;;;;;;;7.40;6.87;;;;;;;24.87;51.16;96541.19;5027058;28;20236;-69
2023/05/22 11:14:16;;;;;;;7.90;7.40;;;;;;;24.85;57.61;96516.31;5056627;28;20941;-68
2023/05/22 11:16:44;;;;;;;7.23;6.70;;;;;;;25.44;53.78;96562.84;5022606;28;20317;-69
2023/05/22 11:19:14;;;;;;;9.00;8.20;;;;;;;25.63;55.35;96564.75;5048934;28;20203;-69
2023/05/22 11:21:50;;;;;;;7.93;7.30;;;;;;;25.41;53.74;96558.00;4983516;28;20334;-69
2023/05/22 11:24:18;;;;;;;9.03;7.83;;;;;;;25.78;52.97;96560.97;5047414;28;20257;-69
2023/05/22 11:27:01;;;;;;;7.20;6.80;;;;;;;25.90;53.49;96562.41;5012962;28;20300;-70
2023/05/22 11:29:29;;;;;;;7.77;7.00;;;;;;;25.97;52.54;96566.34;5039825;28;20267;-68